Time;durP1;ratioP1;P1;durP2;ratioP2;P2;SDS_P1;SDS_P2;PMS_P1;PMS_P2;Temp;Humidity;BMP_temperature;BMP_pressure;BME280_temperature;BME280_humidity;BME280_pressure;Samples;Min_cycle;Max_cycle;Signal;HPM_P1;HPM_P2
2022/10/17 00:00:55;;;;;;;7.53;6.60;;;14.80;99.90;;;;;;6131412;23;20543;-76
2022/10/17 00:03:22;;;;;;;9.13;6.77;;;14.80;99.90;;;;;;6117700;23;20829;-77
2022/10/17 00:05:49;;;;;;;7.80;6.70;;;14.70;99.90;;;;;;6127887;23;20518;-77
2022/10/17 00:08:18;;;;;;;7.40;6.70;;;14.70;99.90;;;;;;6124147;23;20556;-77
2022/10/17 00:10:54;;;;;;;8.10;7.00;;;14.70;99.90;;;;;;6130971;23;20443;-77
2022/10/17 00:13:22;;;;;;;7.90;7.10;;;14.70;99.90;;;;;;6119749;23;20463;-75
2022/10/17 00:15:49;;;;;;;8.47;7.77;;;14.70;99.90;;;;;;6127832;23;20451;-77
2022/10/17 00:18:16;;;;;;;8.10;6.57;;;14.60;99.90;;;;;;6130757;23;20852;-77
2022/10/17 00:20:43;;;;;;;8.03;7.27;;;14.60;99.90;;;;;;6118972;23;21043;-77
2022/10/17 00:23:10;;;;;;;8.00;7.20;;;14.70;99.90;;;;;;6124943;23;20466;-77
2022/10/17 00:25:39;;;;;;;7.97;6.60;;;14.70;99.90;;;;;;6124534;23;20523;-77
2022/10/17 00:28:06;;;;;;;7.40;6.43;;;14.70;99.90;;;;;;6121229;23;20447;-77
2022/10/17 00:30:33;;;;;;;9.10;6.20;;;14.70;99.90;;;;;;6123989;23;20948;-77
2022/10/17 00:33:00;;;;;;;5.90;5.50;;;14.70;99.90;;;;;;6114987;23;20515;-77
2022/10/17 00:35:28;;;;;;;8.17;6.70;;;14.80;99.90;;;;;;6129921;23;20484;-77
2022/10/17 00:37:55;;;;;;;6.60;5.80;;;14.70;99.90;;;;;;6113142;23;20511;-77
2022/10/17 00:40:22;;;;;;;6.30;5.70;;;14.70;99.90;;;;;;6123036;23;20440;-77
2022/10/17 00:42:52;;;;;;;6.20;5.60;;;14.70;99.90;;;;;;6132820;23;20843;-76
2022/10/17 00:45:23;;;;;;;6.40;5.70;;;14.60;99.90;;;;;;6119073;23;20457;-77
2022/10/17 00:47:54;;;;;;;7.47;6.10;;;14.70;99.90;;;;;;6127324;23;20442;-77
2022/10/17 00:50:22;;;;;;;7.17;5.63;;;14.60;99.90;;;;;;6120113;23;21060;-77
2022/10/17 00:52:49;;;;;;;7.57;5.83;;;14.60;99.90;;;;;;6120488;23;20439;-77
2022/10/17 00:55:21;;;;;;;7.40;6.20;;;14.50;99.90;;;;;;6112749;23;20782;-77
2022/10/17 00:57:49;;;;;;;7.00;6.10;;;14.60;99.90;;;;;;6105236;23;20536;-77
2022/10/17 01:00:18;;;;;;;6.73;6.10;;;14.50;99.90;;;;;;6108991;23;20479;-77
2022/10/17 01:02:46;;;;;;;7.80;5.40;;;14.50;99.90;;;;;;6119981;23;21002;-77
2022/10/17 01:05:14;;;;;;;6.10;5.27;;;14.50;99.90;;;;;;6121114;23;20434;-77
2022/10/17 01:07:42;;;;;;;7.47;6.50;;;14.50;99.90;;;;;;6123161;23;20451;-77
2022/10/17 01:10:10;;;;;;;11.50;6.30;;;14.40;99.90;;;;;;6116342;23;21044;-77
2022/10/17 01:12:56;;;;;;;9.33;6.00;;;14.50;99.90;;;;;;6129308;23;20842;-77
2022/10/17 01:15:36;;;;;;;8.10;6.27;;;14.60;99.90;;;;;;6122930;23;20439;-77
2022/10/17 01:18:18;;;;;;;6.40;5.80;;;14.40;99.90;;;;;;6114994;23;21021;-77
2022/10/17 01:21:25;;;;;;;8.17;6.13;;;14.40;99.90;;;;;;6120805;23;20468;-77
2022/10/17 01:24:06;;;;;;;8.63;5.80;;;14.40;99.90;;;;;;6122287;23;20501;-77
2022/10/17 01:26:49;;;;;;;8.30;6.10;;;14.40;99.90;;;;;;6117096;23;20536;-77
2022/10/17 01:29:41;;;;;;;6.77;6.03;;;14.40;99.90;;;;;;6118043;23;20459;-77
2022/10/17 01:32:16;;;;;;;8.73;6.20;;;14.40;99.90;;;;;;6122682;23;20452;-77
2022/10/17 01:34:49;;;;;;;6.43;5.83;;;14.30;99.90;;;;;;6123248;23;20433;-77
2022/10/17 01:37:21;;;;;;;6.37;5.77;;;14.30;99.90;;;;;;6129756;23;20547;-77
2022/10/17 01:39:53;;;;;;;5.93;5.37;;;14.30;99.90;;;;;;6115766;23;20430;-77
2022/10/17 01:42:26;;;;;;;7.40;5.43;;;14.40;99.90;;;;;;6115572;23;20448;-77
2022/10/17 01:44:58;;;;;;;5.97;5.50;;;14.20;99.90;;;;;;6135416;23;20487;-77
2022/10/17 01:47:32;;;;;;;8.20;5.43;;;14.20;99.90;;;;;;6124769;23;21057;-77
2022/10/17 01:50:05;;;;;;;6.50;5.87;;;14.10;99.90;;;;;;6122388;23;20474;-77
2022/10/17 01:52:38;;;;;;;7.07;6.37;;;14.10;99.90;;;;;;6139729;23;20795;-77
2022/10/17 01:55:09;;;;;;;6.30;5.70;;;14.10;99.90;;;;;;6126019;23;20465;-77
2022/10/17 01:57:39;;;;;;;6.53;5.37;;;14.10;99.90;;;;;;6127447;23;20443;-77
2022/10/17 02:00:12;;;;;;;8.57;5.80;;;14.10;99.90;;;;;;6120697;23;20447;-77
2022/10/17 02:02:42;;;;;;;5.57;5.17;;;14.00;99.90;;;;;;6118850;23;20498;-77
2022/10/17 02:05:09;;;;;;;6.10;5.03;;;14.10;99.90;;;;;;6110595;23;20467;-76
2022/10/17 02:07:37;;;;;;;6.20;5.60;;;14.10;99.90;;;;;;6116432;23;20436;-77
2022/10/17 02:10:09;;;;;;;5.80;5.20;;;14.00;99.90;;;;;;6141435;23;20505;-77
2022/10/17 02:12:48;;;;;;;8.00;6.10;;;14.00;99.90;;;;;;6140121;23;20441;-77
2022/10/17 02:15:51;;;;;;;9.67;5.90;;;13.90;99.90;;;;;;6122207;23;20850;-77
2022/10/17 02:18:40;;;;;;;9.30;5.20;;;13.90;99.90;;;;;;6113110;23;20491;-76
2022/10/17 02:21:14;;;;;;;5.83;5.33;;;13.90;99.90;;;;;;6121622;23;20452;-77
2022/10/17 02:23:51;;;;;;;6.07;5.50;;;13.90;99.90;;;;;;6114379;23;20880;-76
2022/10/17 02:26:24;;;;;;;5.70;5.20;;;13.90;99.90;;;;;;6118736;23;20522;-77
2022/10/17 02:29:01;;;;;;;5.23;4.73;;;13.90;99.90;;;;;;6118117;23;20491;-76
2022/10/17 02:31:33;;;;;;;9.50;6.20;;;13.90;99.90;;;;;;6129119;23;20517;-76
2022/10/17 02:34:05;;;;;;;9.37;5.17;;;13.80;99.90;;;;;;6119036;23;20426;-76
2022/10/17 02:36:36;;;;;;;6.20;5.57;;;13.80;99.90;;;;;;6117180;23;20512;-76
2022/10/17 02:39:06;;;;;;;4.93;4.43;;;13.80;99.90;;;;;;6125089;23;20474;-76
2022/10/17 02:41:36;;;;;;;7.83;6.33;;;13.70;99.90;;;;;;6134293;23;20530;-77
2022/10/17 02:44:06;;;;;;;5.83;5.23;;;13.70;99.90;;;;;;6123270;23;20430;-76
2022/10/17 02:46:35;;;;;;;9.63;4.90;;;13.60;99.90;;;;;;6120354;23;20515;-77
2022/10/17 02:49:10;;;;;;;5.93;4.87;;;13.60;99.90;;;;;;6099907;23;21037;-76
2022/10/17 02:51:44;;;;;;;9.63;5.50;;;13.50;99.90;;;;;;6134778;23;20903;-76
2022/10/17 02:54:17;;;;;;;14.50;5.10;;;13.70;99.90;;;;;;6115285;23;20240;-76
2022/10/17 02:56:50;;;;;;;5.73;4.50;;;13.60;99.90;;;;;;6116644;23;20476;-77
2022/10/17 02:59:21;;;;;;;6.03;4.97;;;13.60;99.90;;;;;;6119709;23;20415;-77
2022/10/17 03:01:50;;;;;;;6.60;4.20;;;13.60;99.90;;;;;;6117303;23;20522;-77
2022/10/17 03:04:20;;;;;;;5.27;4.67;;;13.60;99.90;;;;;;6122707;23;20469;-76
2022/10/17 03:06:48;;;;;;;5.07;4.57;;;13.50;99.90;;;;;;6119653;23;20469;-76
2022/10/17 03:09:15;;;;;;;7.60;4.33;;;13.50;99.90;;;;;;6130658;23;20485;-76
2022/10/17 03:11:43;;;;;;;5.93;4.27;;;13.50;99.90;;;;;;6127071;23;20443;-77
2022/10/17 03:14:10;;;;;;;6.23;5.00;;;13.40;99.90;;;;;;6109100;23;20915;-76
2022/10/17 03:16:37;;;;;;;7.10;4.53;;;13.40;99.90;;;;;;6121801;23;20945;-76
2022/10/17 03:19:04;;;;;;;10.35;6.18;;;13.40;99.90;;;;;;6119681;23;20442;-76
2022/10/17 03:21:35;;;;;;;5.33;4.60;;;13.40;99.90;;;;;;6130129;23;20202;-76
2022/10/17 03:24:02;;;;;;;6.23;4.80;;;13.40;99.90;;;;;;6116820;23;20860;-76
2022/10/17 03:26:30;;;;;;;5.50;4.97;;;13.30;99.90;;;;;;6119311;23;20442;-76
2022/10/17 03:28:57;;;;;;;5.63;4.25;;;13.30;99.90;;;;;;6121903;23;20223;-76
2022/10/17 03:31:24;;;;;;;6.97;5.10;;;13.20;99.90;;;;;;6119762;23;20195;-77
2022/10/17 03:33:52;;;;;;;8.17;5.43;;;13.20;99.90;;;;;;6118644;23;20438;-76
2022/10/17 03:36:20;;;;;;;6.55;5.90;;;13.10;99.90;;;;;;6127794;23;20476;-77
2022/10/17 03:38:48;;;;;;;8.88;6.47;;;13.00;99.90;;;;;;6131028;23;20214;-76
2022/10/17 03:41:16;;;;;;;6.72;5.05;;;13.00;99.90;;;;;;6124928;23;20234;-76
2022/10/17 03:43:43;;;;;;;10.80;5.60;;;13.00;99.90;;;;;;6133721;23;20660;-77
2022/10/17 03:46:10;;;;;;;6.75;6.07;;;12.90;99.90;;;;;;6126676;23;20210;-77
2022/10/17 03:48:37;;;;;;;7.30;5.97;;;12.90;99.90;;;;;;6131084;23;20191;-76
2022/10/17 03:51:07;;;;;;;8.10;5.95;;;12.90;99.90;;;;;;6127198;23;20681;-76
2022/10/17 03:53:34;;;;;;;8.18;5.20;;;12.90;99.90;;;;;;6128931;23;20202;-76
2022/10/17 03:56:12;;;;;;;7.82;6.10;;;12.90;99.90;;;;;;6122379;23;20199;-76
2022/10/17 03:58:40;;;;;;;6.03;5.53;;;12.90;99.90;;;;;;6124046;23;20663;-76
2022/10/17 04:01:08;;;;;;;6.65;6.00;;;12.80;99.90;;;;;;6130288;23;20731;-76
2022/10/17 04:03:35;;;;;;;11.02;6.82;;;12.80;99.90;;;;;;6107538;23;20546;-76
2022/10/17 04:06:04;;;;;;;7.43;6.70;;;12.80;99.90;;;;;;6122288;23;20274;-76
2022/10/17 04:08:33;;;;;;;7.60;6.80;;;12.80;99.90;;;;;;6120287;23;20294;-77
2022/10/17 04:11:01;;;;;;;8.70;6.80;;;12.80;99.90;;;;;;6126519;23;20294;-76
2022/10/17 04:13:31;;;;;;;6.68;6.07;;;12.80;99.90;;;;;;6119317;23;20219;-76
2022/10/17 04:16:00;;;;;;;8.43;6.10;;;12.90;99.90;;;;;;6123134;23;20229;-77
2022/10/17 04:18:29;;;;;;;7.00;6.30;;;12.90;99.90;;;;;;6116640;23;20207;-76
2022/10/17 04:20:55;;;;;;;7.93;6.17;;;12.90;99.90;;;;;;6134649;23;20217;-75
2022/10/17 04:23:25;;;;;;;6.10;5.60;;;12.90;99.90;;;;;;6116140;23;20532;-76
2022/10/17 04:25:55;;;;;;;6.93;6.30;;;12.90;99.90;;;;;;6111218;23;20195;-76
2022/10/17 04:28:24;;;;;;;8.48;6.05;;;12.80;99.90;;;;;;6115933;23;21171;-76
2022/10/17 04:30:57;;;;;;;6.65;5.93;;;12.80;99.90;;;;;;6120941;23;20203;-76
2022/10/17 04:33:24;;;;;;;9.32;7.05;;;12.80;99.90;;;;;;6119493;23;20259;-75
2022/10/17 04:35:56;;;;;;;8.10;6.07;;;12.80;99.90;;;;;;6124189;23;20233;-75
2022/10/17 04:38:23;;;;;;;7.97;5.88;;;12.90;99.90;;;;;;6119463;23;20640;-75
2022/10/17 04:40:51;;;;;;;7.65;5.68;;;12.70;99.90;;;;;;6125086;23;20203;-76
2022/10/17 04:43:18;;;;;;;6.80;6.10;;;12.70;99.90;;;;;;6130417;23;20191;-75
2022/10/17 04:45:46;;;;;;;9.30;6.30;;;12.70;99.90;;;;;;6119980;23;20541;-75
2022/10/17 04:48:15;;;;;;;8.15;6.80;;;12.80;99.90;;;;;;6120114;23;20442;-76
2022/10/17 04:50:42;;;;;;;11.82;6.95;;;12.80;99.90;;;;;;6120465;23;20207;-76
2022/10/17 04:53:09;;;;;;;7.57;6.60;;;12.80;99.90;;;;;;6120905;23;20274;-76
2022/10/17 04:55:38;;;;;;;6.87;6.27;;;12.80;99.90;;;;;;6107299;23;20633;-76
2022/10/17 04:58:05;;;;;;;9.98;7.00;;;12.80;99.90;;;;;;6113219;23;20438;-75
2022/10/17 05:00:32;;;;;;;7.43;6.53;;;12.80;99.90;;;;;;6116603;23;20224;-78
2022/10/17 05:02:59;;;;;;;7.57;5.93;;;12.80;99.90;;;;;;6109214;23;20191;-76
2022/10/17 05:05:28;;;;;;;9.23;6.17;;;12.80;99.90;;;;;;6103798;23;20192;-76
2022/10/17 05:07:55;;;;;;;7.75;6.28;;;12.90;99.90;;;;;;6113128;23;20509;-76
2022/10/17 05:10:23;;;;;;;9.83;6.83;;;12.80;99.90;;;;;;6116186;23;20327;-76
2022/10/17 05:12:50;;;;;;;7.00;6.30;;;12.80;99.90;;;;;;6111916;23;20522;-76
2022/10/17 05:15:18;;;;;;;7.27;5.63;;;12.80;99.90;;;;;;6101156;23;20349;-76
2022/10/17 05:17:45;;;;;;;8.50;6.45;;;12.90;99.90;;;;;;6090534;23;20479;-76
2022/10/17 05:20:12;;;;;;;9.70;6.13;;;12.80;99.90;;;;;;6105449;23;20226;-76
2022/10/17 05:22:41;;;;;;;6.20;5.63;;;12.90;99.90;;;;;;6129387;23;20214;-76
2022/10/17 05:25:09;;;;;;;6.68;5.75;;;12.80;99.90;;;;;;6132426;23;20445;-76
2022/10/17 05:27:37;;;;;;;7.25;6.45;;;12.90;99.90;;;;;;6137033;23;20195;-76
2022/10/17 05:30:04;;;;;;;9.55;6.00;;;12.90;99.90;;;;;;6123348;23;20216;-76
2022/10/17 05:32:32;;;;;;;6.50;6.00;;;12.80;99.90;;;;;;6109832;23;20178;-76
2022/10/17 05:34:59;;;;;;;7.90;6.57;;;12.80;99.90;;;;;;6116072;23;20192;-75
2022/10/17 05:37:29;;;;;;;10.73;6.05;;;12.90;99.90;;;;;;6097916;23;20193;-76
2022/10/17 05:39:58;;;;;;;7.20;5.80;;;12.90;99.90;;;;;;6106402;23;20184;-76
2022/10/17 05:42:26;;;;;;;6.93;6.28;;;12.90;99.90;;;;;;6115363;23;20200;-76
2022/10/17 05:44:53;;;;;;;7.47;6.28;;;12.90;99.90;;;;;;6110003;23;20993;-76
2022/10/17 05:47:20;;;;;;;11.18;6.05;;;12.90;99.90;;;;;;6110372;23;20546;-76
2022/10/17 05:49:47;;;;;;;6.97;5.72;;;12.90;99.90;;;;;;6133569;23;20187;-76
2022/10/17 05:52:16;;;;;;;8.00;5.63;;;12.90;99.90;;;;;;6103003;23;20290;-76
2022/10/17 05:54:44;;;;;;;8.70;5.72;;;13.00;99.90;;;;;;6112500;23;20222;-79
2022/10/17 05:57:12;;;;;;;8.30;5.60;;;12.90;99.90;;;;;;6118543;23;20191;-75
2022/10/17 05:59:39;;;;;;;6.20;5.57;;;12.90;99.90;;;;;;6097549;23;20192;-75
2022/10/17 06:02:06;;;;;;;6.78;5.95;;;13.00;99.90;;;;;;6111712;23;20188;-77
2022/10/17 06:04:34;;;;;;;6.93;6.22;;;12.90;99.90;;;;;;6111972;23;20193;-76
2022/10/17 06:07:01;;;;;;;7.70;5.72;;;12.90;99.90;;;;;;6107695;23;20187;-76
2022/10/17 06:09:29;;;;;;;6.50;5.65;;;12.90;99.90;;;;;;6102915;23;20886;-76
2022/10/17 06:11:56;;;;;;;7.68;5.82;;;13.00;99.90;;;;;;6098251;23;20208;-76
2022/10/17 06:14:25;;;;;;;6.70;6.00;;;13.00;99.90;;;;;;6100307;23;20230;-77
2022/10/17 06:16:53;;;;;;;5.67;5.00;;;13.20;99.90;;;;;;6089551;23;20622;-76
2022/10/17 06:19:20;;;;;;;9.02;5.22;;;13.30;99.90;;;;;;6101910;23;20434;-76
2022/10/17 06:21:47;;;;;;;5.87;4.97;;;13.40;99.90;;;;;;6099143;23;20196;-76
2022/10/17 06:24:15;;;;;;;5.47;4.97;;;13.50;99.90;;;;;;6112719;23;20445;-76
2022/10/17 06:26:42;;;;;;;6.67;5.30;;;13.60;99.90;;;;;;6119508;23;20482;-76
2022/10/17 06:29:08;;;;;;;5.40;4.90;;;13.60;99.90;;;;;;6120069;23;20461;-76
2022/10/17 06:31:38;;;;;;;8.40;5.10;;;13.50;99.90;;;;;;6118252;23;20881;-76
2022/10/17 06:34:06;;;;;;;10.05;5.75;;;13.70;99.90;;;;;;6117276;23;20434;-76
2022/10/17 06:36:33;;;;;;;8.98;6.90;;;13.40;99.90;;;;;;6119141;23;20184;-77
2022/10/17 06:39:01;;;;;;;6.57;5.40;;;13.40;99.90;;;;;;6113730;23;20207;-76
2022/10/17 06:41:28;;;;;;;9.13;6.50;;;13.40;99.90;;;;;;6119099;23;20426;-76
2022/10/17 06:43:55;;;;;;;8.50;6.17;;;13.40;99.90;;;;;;6116900;23;20434;-77
2022/10/17 06:46:25;;;;;;;6.70;5.45;;;13.40;99.90;;;;;;6108447;23;20562;-76
2022/10/17 06:48:53;;;;;;;8.10;5.30;;;13.40;99.90;;;;;;6107024;23;20262;-76
2022/10/17 06:51:21;;;;;;;6.33;5.30;;;13.60;99.90;;;;;;6128445;23;20806;-77
2022/10/17 06:53:48;;;;;;;7.47;4.80;;;13.80;99.90;;;;;;6111389;23;20452;-77
2022/10/17 06:56:15;;;;;;;5.60;5.00;;;14.00;99.90;;;;;;6112610;23;20432;-77
2022/10/17 06:58:42;;;;;;;6.03;5.07;;;14.30;99.90;;;;;;6113402;23;20428;-77
2022/10/17 07:01:12;;;;;;;6.37;4.80;;;14.60;99.90;;;;;;6114279;23;20446;-79
2022/10/17 07:03:40;;;;;;;7.00;5.00;;;14.90;99.90;;;;;;6111058;23;20433;-77
2022/10/17 07:06:10;;;;;;;5.00;4.30;;;15.20;99.90;;;;;;6108097;23;20429;-77
2022/10/17 07:08:38;;;;;;;6.13;4.37;;;15.50;99.90;;;;;;6116608;23;20513;-77
2022/10/17 07:11:12;;;;;;;4.23;3.83;;;15.70;99.90;;;;;;6106555;23;20462;-77
2022/10/17 07:13:39;;;;;;;6.73;5.10;;;16.00;99.90;;;;;;6108994;23;20482;-76
2022/10/17 07:16:07;;;;;;;6.07;4.37;;;16.20;99.90;;;;;;6116395;23;20495;-76
2022/10/17 07:18:34;;;;;;;6.07;4.53;;;16.40;99.90;;;;;;6109385;23;20444;-76
2022/10/17 07:21:02;;;;;;;4.60;4.20;;;16.70;99.90;;;;;;6108976;23;20521;-76
2022/10/17 07:23:33;;;;;;;4.33;3.87;;;17.00;99.90;;;;;;6108788;23;20431;-76
2022/10/17 07:26:01;;;;;;;7.40;4.50;;;17.20;99.90;;;;;;6108239;23;20433;-77
2022/10/17 07:28:28;;;;;;;6.73;4.50;;;17.40;99.90;;;;;;6118160;23;20489;-77
2022/10/17 07:30:55;;;;;;;6.53;4.47;;;17.60;99.90;;;;;;6109292;23;20456;-77
2022/10/17 07:33:22;;;;;;;6.20;4.50;;;17.50;99.90;;;;;;6104929;23;20440;-77
2022/10/17 07:35:51;;;;;;;5.80;4.83;;;17.60;99.90;;;;;;6110436;23;20465;-77
2022/10/17 07:38:18;;;;;;;4.90;4.40;;;17.80;99.90;;;;;;6108110;23;20438;-77
2022/10/17 07:40:54;;;;;;;5.70;4.50;;;17.90;99.90;;;;;;6120059;23;20524;-78
2022/10/17 07:43:21;;;;;;;9.33;5.10;;;18.00;99.90;;;;;;6113467;23;20467;-77
2022/10/17 07:45:48;;;;;;;5.50;4.53;;;18.20;99.90;;;;;;6132298;23;20459;-77
2022/10/17 07:48:15;;;;;;;6.67;4.50;;;18.40;99.90;;;;;;6119912;23;20452;-77
2022/10/17 07:50:42;;;;;;;4.97;4.40;;;18.60;99.90;;;;;;6115387;23;20830;-77
2022/10/17 07:53:09;;;;;;;6.23;4.30;;;18.80;99.90;;;;;;6122147;23;20528;-78
2022/10/17 07:55:37;;;;;;;5.03;3.90;;;19.00;99.90;;;;;;6121121;23;20463;-77
2022/10/17 07:58:07;;;;;;;5.57;4.90;;;19.20;99.90;;;;;;6114288;23;20485;-77
2022/10/17 08:00:34;;;;;;;7.13;4.50;;;19.10;99.90;;;;;;6110961;23;20454;-77
2022/10/17 08:03:01;;;;;;;5.30;4.50;;;18.90;99.90;;;;;;6108132;23;20934;-77
2022/10/17 08:05:29;;;;;;;5.60;4.20;;;18.90;99.90;;;;;;6110068;23;20452;-77
2022/10/17 08:07:56;;;;;;;5.40;3.87;;;18.90;99.90;;;;;;6110081;23;20931;-77
2022/10/17 08:10:26;;;;;;;7.70;4.37;;;19.20;99.90;;;;;;6117632;23;20472;-77
2022/10/17 08:12:54;;;;;;;5.57;4.40;;;19.70;99.90;;;;;;6117114;23;20435;-77
2022/10/17 08:15:22;;;;;;;6.77;3.93;;;20.10;99.90;;;;;;6109324;23;21373;-77
2022/10/17 08:17:50;;;;;;;5.63;3.80;;;20.20;99.90;;;;;;6106326;23;20512;-77
2022/10/17 08:20:18;;;;;;;5.77;4.50;;;20.20;99.90;;;;;;6104639;23;20628;-77
2022/10/17 08:22:52;;;;;;;4.23;3.83;;;20.00;99.90;;;;;;6112957;23;20465;-77
2022/10/17 08:25:21;;;;;;;7.93;4.50;;;19.90;99.90;;;;;;6110780;23;20439;-77
2022/10/17 08:27:47;;;;;;;5.03;3.90;;;20.00;99.90;;;;;;6109818;23;20477;-77
2022/10/17 08:30:15;;;;;;;4.57;4.10;;;19.90;99.90;;;;;;6118823;23;20497;-77
2022/10/17 08:32:44;;;;;;;4.87;3.70;;;20.10;99.90;;;;;;6109919;23;20471;-77
2022/10/17 08:35:13;;;;;;;4.20;3.80;;;20.20;99.90;;;;;;6105445;23;20442;-77
2022/10/17 08:37:40;;;;;;;8.67;4.27;;;20.30;99.90;;;;;;6119646;23;20486;-78
2022/10/17 08:40:15;;;;;;;6.17;3.23;;;20.30;99.90;;;;;;6108767;23;20444;-75
2022/10/17 08:43:02;;;;;;;3.90;3.30;;;20.40;99.90;;;;;;6117486;23;20438;-75
2022/10/17 08:45:35;;;;;;;6.13;3.10;;;20.40;99.90;;;;;;6111085;23;20459;-75
2022/10/17 08:48:10;;;;;;;7.40;3.43;;;20.40;99.90;;;;;;6115264;23;20952;-75
2022/10/17 08:50:42;;;;;;;4.90;3.20;;;20.60;99.90;;;;;;6109525;23;20561;-75
2022/10/17 08:53:16;;;;;;;4.30;3.30;;;20.80;99.90;;;;;;6111409;23;20453;-75
2022/10/17 08:55:47;;;;;;;4.63;3.30;;;21.20;99.90;;;;;;6112290;23;20430;-74
2022/10/17 08:58:16;;;;;;;2.90;2.63;;;21.20;99.90;;;;;;6099777;23;20511;-77
2022/10/17 09:00:50;;;;;;;5.30;2.50;;;20.90;99.90;;;;;;6113398;23;20512;-74
2022/10/17 09:03:42;;;;;;;3.83;2.50;;;20.70;99.90;;;;;;6114736;23;20437;-77
2022/10/17 09:06:23;;;;;;;4.73;2.70;;;20.50;99.90;;;;;;6117911;23;20485;-78
2022/10/17 09:09:03;;;;;;;2.73;2.43;;;20.70;99.90;;;;;;6123799;23;20928;-76
2022/10/17 09:11:44;;;;;;;2.70;2.23;;;21.10;99.90;;;;;;6104569;23;20567;-76
2022/10/17 09:14:30;;;;;;;2.70;2.30;;;21.40;99.90;;;;;;6125271;23;20441;-76
2022/10/17 09:17:08;;;;;;;3.30;2.10;;;21.50;99.90;;;;;;6120074;23;21012;-78
2022/10/17 09:19:39;;;;;;;4.63;2.50;;;21.30;99.90;;;;;;6110489;23;20523;-75
2022/10/17 09:22:11;;;;;;;3.57;2.80;;;21.10;99.90;;;;;;6122132;23;20505;-75
2022/10/17 09:24:42;;;;;;;3.90;2.63;;;20.90;99.90;;;;;;6124744;23;20464;-76
2022/10/17 09:27:20;;;;;;;2.83;2.40;;;20.80;99.90;;;;;;6113348;23;20464;-75
2022/10/17 09:29:50;;;;;;;2.87;2.43;;;20.80;99.90;;;;;;6111848;23;20461;-76
2022/10/17 09:32:23;;;;;;;2.90;2.60;;;20.90;99.90;;;;;;6117431;23;20479;-75
2022/10/17 09:34:52;;;;;;;4.17;3.07;;;21.20;99.90;;;;;;6103481;23;20495;-78
2022/10/17 09:37:22;;;;;;;4.50;2.47;;;21.20;99.90;;;;;;6118990;23;20833;-76
2022/10/17 09:39:49;;;;;;;3.43;2.37;;;21.10;99.90;;;;;;6114983;23;20469;-76
2022/10/17 09:42:24;;;;;;;3.33;2.80;;;21.20;99.90;;;;;;6118645;23;20442;-77
2022/10/17 09:45:03;;;;;;;3.00;2.40;;;21.40;99.90;;;;;;6114331;23;20441;-77
2022/10/17 09:47:35;;;;;;;3.73;2.60;;;21.50;99.90;;;;;;6125670;23;20934;-76
2022/10/17 09:50:14;;;;;;;13.47;3.80;;;21.70;99.90;;;;;;6131098;23;20437;-78
2022/10/17 09:52:46;;;;;;;4.73;2.47;;;22.00;99.90;;;;;;6121595;23;20529;-76
2022/10/17 09:55:20;;;;;;;4.13;2.50;;;22.30;99.90;;;;;;6125811;23;20492;-77
2022/10/17 09:57:56;;;;;;;2.70;2.00;;;22.60;99.90;;;;;;6126953;23;20428;-77
2022/10/17 10:00:25;;;;;;;5.07;2.40;;;22.90;99.90;;;;;;6145626;23;20497;-77
2022/10/17 10:03:09;;;;;;;3.30;2.00;;;23.20;99.90;;;;;;6118040;23;20420;-77
2022/10/17 10:05:37;;;;;;;2.53;2.00;;;23.50;99.90;;;;;;6127023;23;20445;-77
2022/10/17 10:08:11;;;;;;;3.07;2.60;;;23.40;99.90;;;;;;6128205;23;20432;-77
2022/10/17 10:10:41;;;;;;;2.20;2.00;;;23.40;99.90;;;;;;6107649;23;20450;-77
2022/10/17 10:13:19;;;;;;;4.37;2.40;;;23.80;99.90;;;;;;6121398;23;20464;-77
2022/10/17 10:15:48;;;;;;;3.30;2.43;;;24.00;99.90;;;;;;6131502;23;20775;-77
2022/10/17 10:18:35;;;;;;;3.83;2.50;;;24.00;99.90;;;;;;6131289;23;20448;-77
2022/10/17 10:21:10;;;;;;;5.47;2.30;;;23.90;99.90;;;;;;6119821;23;20424;-76
2022/10/17 10:23:39;;;;;;;3.90;2.30;;;23.90;99.90;;;;;;6123904;23;20468;-77
2022/10/17 10:26:20;;;;;;;3.60;2.27;;;23.90;99.90;;;;;;6119568;23;20532;-77
2022/10/17 10:28:57;;;;;;;4.30;2.57;;;24.10;99.90;;;;;;6112387;23;20441;-77
2022/10/17 10:31:31;;;;;;;3.20;2.40;;;24.30;99.90;;;;;;6118680;23;20551;-76
2022/10/17 10:34:07;;;;;;;5.13;2.53;;;24.60;99.90;;;;;;6096888;23;20449;-77
2022/10/17 10:36:56;;;;;;;8.97;3.57;;;24.70;99.90;;;;;;6103769;23;20448;-77
2022/10/17 10:39:41;;;;;;;3.63;2.80;;;25.00;99.90;;;;;;6115524;23;20455;-76
2022/10/17 10:42:23;;;;;;;6.80;2.90;;;25.40;99.90;;;;;;6124970;23;20425;-77
2022/10/17 10:44:51;;;;;;;5.23;2.70;;;25.80;99.90;;;;;;6111423;23;20425;-76
2022/10/17 10:47:24;;;;;;;4.30;2.77;;;26.20;99.90;;;;;;6117827;23;20429;-77
2022/10/17 10:50:17;;;;;;;4.70;2.43;;;26.60;99.90;;;;;;6117748;23;20428;-76
2022/10/17 10:52:54;;;;;;;3.47;2.27;;;26.90;99.90;;;;;;6119658;23;20545;-76
2022/10/17 10:55:26;;;;;;;3.87;2.50;;;26.90;99.90;;;;;;6107324;23;20441;-76
2022/10/17 10:57:57;;;;;;;4.83;2.70;;;26.50;99.90;;;;;;6111710;23;20433;-76
2022/10/17 11:00:28;;;;;;;2.77;2.20;;;26.40;99.90;;;;;;6120976;23;20463;-76
2022/10/17 11:03:02;;;;;;;3.03;2.47;;;26.50;99.90;;;;;;6112877;23;21017;-76
2022/10/17 11:05:40;;;;;;;6.27;3.00;;;26.70;99.90;;;;;;6105776;23;20441;-76
2022/10/17 11:08:19;;;;;;;6.00;3.10;;;26.90;99.90;;;;;;6111091;23;20528;-76
2022/10/17 11:11:06;;;;;;;3.87;2.57;;;27.00;99.90;;;;;;6096907;23;20434;-77
2022/10/17 11:13:40;;;;;;;3.90;2.70;;;26.90;99.90;;;;;;6123830;23;20484;-76
2022/10/17 11:16:20;;;;;;;3.27;2.73;;;26.70;99.90;;;;;;6116352;23;20438;-76
2022/10/17 11:18:54;;;;;;;3.30;2.70;;;26.70;99.90;;;;;;6123245;23;20430;-74
2022/10/17 11:21:32;;;;;;;4.03;2.73;;;26.60;99.90;;;;;;6114554;23;20436;-75
2022/10/17 11:24:07;;;;;;;3.80;2.80;;;26.60;99.90;;;;;;6119360;23;20958;-75
2022/10/17 11:26:40;;;;;;;6.97;2.90;;;26.70;99.90;;;;;;6123087;23;20457;-76
2022/10/17 11:29:10;;;;;;;4.33;2.70;;;26.80;99.90;;;;;;6128060;23;20460;-76
2022/10/17 11:31:45;;;;;;;3.47;2.70;;;27.00;99.90;;;;;;6129437;23;20445;-76
2022/10/17 11:34:20;;;;;;;3.77;2.73;;;27.10;99.90;;;;;;6120350;23;20856;-76
2022/10/17 11:36:50;;;;;;;4.13;2.70;;;27.20;99.90;;;;;;6120747;23;21187;-76
2022/10/17 11:39:26;;;;;;;3.27;2.23;;;27.10;99.90;;;;;;6120054;23;20449;-76
2022/10/17 11:42:00;;;;;;;3.80;2.87;;;27.20;99.90;;;;;;6119374;23;20429;-76
2022/10/17 11:44:31;;;;;;;4.70;2.47;;;27.50;99.90;;;;;;6119383;23;20430;-76
2022/10/17 11:47:07;;;;;;;2.73;2.43;;;27.60;99.90;;;;;;6133371;23;20475;-76
2022/10/17 11:49:38;;;;;;;3.23;2.60;;;27.90;99.90;;;;;;6122021;23;20455;-74
2022/10/17 11:52:19;;;;;;;3.07;2.43;;;28.10;99.90;;;;;;6129246;23;20449;-75
2022/10/17 11:54:51;;;;;;;3.10;2.70;;;28.40;99.90;;;;;;6109537;23;20434;-75
2022/10/17 11:57:36;;;;;;;3.30;2.63;;;28.60;99.90;;;;;;6123806;23;20460;-75
2022/10/17 12:00:20;;;;;;;4.20;2.77;;;28.80;99.90;;;;;;6107776;23;20440;-75
2022/10/17 12:02:56;;;;;;;2.63;1.90;;;28.80;99.90;;;;;;6139116;23;20520;-74
2022/10/17 12:05:34;;;;;;;2.33;2.13;;;29.10;99.90;;;;;;6108003;23;20445;-74
2022/10/17 12:08:05;;;;;;;2.20;2.00;;;29.40;99.90;;;;;;6106963;23;20757;-74
2022/10/17 12:10:44;;;;;;;3.00;2.10;;;29.50;99.30;;;;;;6105015;23;21177;-74
2022/10/17 12:13:50;;;;;;;3.00;1.80;;;29.20;99.50;;;;;;6116678;23;20909;-75
2022/10/17 12:16:44;;;;;;;3.37;1.90;;;29.10;99.00;;;;;;6121864;23;20456;-74
2022/10/17 12:19:39;;;;;;;3.90;2.13;;;28.60;98.70;;;;;;6117404;23;20941;-75
2022/10/17 12:22:22;;;;;;;3.20;1.80;;;28.50;98.70;;;;;;6130909;23;20421;-74
2022/10/17 12:25:00;;;;;;;2.17;1.80;;;28.40;98.50;;;;;;6103511;23;20771;-75
2022/10/17 12:27:42;;;;;;;2.63;1.70;;;28.40;99.80;;;;;;6119382;23;20437;-75
2022/10/17 12:30:23;;;;;;;3.37;1.90;;;28.40;99.10;;;;;;6109963;23;20436;-74
2022/10/17 12:32:59;;;;;;;3.57;1.97;;;28.30;98.60;;;;;;6114945;23;20528;-74
2022/10/17 12:35:28;;;;;;;1.97;1.80;;;28.30;99.60;;;;;;6113341;23;20989;-74
2022/10/17 12:38:21;;;;;;;3.00;2.20;;;28.40;99.80;;;;;;6116771;23;20532;-74
2022/10/17 12:41:01;;;;;;;1.87;1.77;;;28.50;99.00;;;;;;6117281;23;20445;-75
2022/10/17 12:43:54;;;;;;;5.10;2.30;;;28.30;99.90;;;;;;6107482;23;20434;-75
2022/10/17 12:46:47;;;;;;;3.90;2.37;;;28.20;99.90;;;;;;6107654;23;20456;-76
2022/10/17 12:49:44;;;;;;;3.23;2.37;;;28.20;99.90;;;;;;6098222;23;20492;-75
2022/10/17 12:52:21;;;;;;;2.30;2.10;;;28.30;99.90;;;;;;6115506;23;20500;-75
2022/10/17 12:54:57;;;;;;;2.20;2.00;;;28.30;99.90;;;;;;6125387;23;20934;-75
2022/10/17 12:57:31;;;;;;;4.17;2.40;;;28.30;99.90;;;;;;6119213;23;20504;-75
2022/10/17 13:00:04;;;;;;;5.30;2.43;;;28.20;99.90;;;;;;6122644;23;20436;-76
2022/10/17 13:02:33;;;;;;;2.33;2.10;;;28.10;99.90;;;;;;6110884;23;21022;-75
2022/10/17 13:05:08;;;;;;;2.53;2.33;;;28.10;99.90;;;;;;6091753;23;20465;-75
2022/10/17 13:07:37;;;;;;;4.43;2.53;;;28.00;99.90;;;;;;6113083;23;20472;-76
2022/10/17 13:10:05;;;;;;;3.47;2.50;;;27.90;99.20;;;;;;6108832;23;20531;-76